Strona główna
Zdjęcia satelitarne 10-dni prognozyKlimatMeteorologia morska Cyklony Błyskawica LotniskoFAQ Gazetka O
Pogoda : Europa Afryka Ameryka Północna Ameryka Południowa Azja Australia-Oceania Inny
Języki Kontakt

Albert, Francja

Szerokość geograficzna: 49-58-21N, Długość geograficzna: 002-41-29E, wysokość: 111 m


METAR: LFAQ 040100Z AUTO 26005KT CAVOK 11/10 Q1016
TAF: LFAQ 031400Z 0315/0324 32008KT 9999 SCT035 TEMPO 0315/0316 5000 SHRA BKN030CB

czas: 03:28 (01:28 UTC)

Aktualna obserwacja pogody

Raport powstał 28 minut temu, godzina 01:00 UTC
Wiatr 5 kt od zachód
Temperatura 11°C
Wilgotność 94%
Ciśnienie 1016 hPa
Widzialność 10 km lub więcej
Brak chmur poniżej 1500 m i brak chmur cumulonimbus

Jednostka miary

Prognoza

Raport powstał 11 godziny i 28 minut temu, godzina 14:00 UTC
Prognoza ważna od 03 godzina 15 UTC do 03 godzina 24 UTC
Wiatr 8 kt od północny zachód
Widzialność 10 km lub więcej
Rozproszone chmury na wysokości 3500 ft
Przejściowo
od 03 godzina 15 UTC do 03 godzina 16 UTC
Widzialność: 5000 m
Przerywane chmury na wysokości 3000 ft, Cumulonimbus.
przelotny opad deszczu
Informacje na tej stronie internetowej podlegają klauzuli o wyłączeniu odpowiedzialności
Pogoda : Europa Afryka Ameryka Północna Ameryka Południowa Azja Australia-Oceania Inny
Zdjęcia satelitarne 10-dni prognozyKlimatMeteorologia morska Cyklony Błyskawica LotniskoFAQ Języki Kontakt Gazetka O